Time;durP1;ratioP1;P1;durP2;ratioP2;P2;SDS_P1;SDS_P2;PMS_P1;PMS_P2;Temp;Humidity;BMP_temperature;BMP_pressure;BME280_temperature;BME280_humidity;BME280_pressure;Samples;Min_cycle;Max_cycle;Signal;HPM_P1;HPM_P2
2022/12/04 00:01:09;;;;;;;27.63;14.55;;;0.80;99.90;;;;;;5094824;28;20115;-75
2022/12/04 00:03:35;;;;;;;28.30;13.35;;;2.80;99.90;;;;;;5096641;28;20036;-73
2022/12/04 00:06:20;;;;;;;30.90;15.23;;;1.10;99.90;;;;;;5089879;28;20044;-75
2022/12/04 00:08:47;;;;;;;29.65;14.73;;;1.10;99.90;;;;;;5077593;28;20048;-75
2022/12/04 00:11:15;;;;;;;29.58;14.45;;;1.10;99.90;;;;;;5094705;28;20520;-75
2022/12/04 00:13:41;;;;;;;30.92;15.07;;;1.10;99.90;;;;;;5093360;28;20082;-75
2022/12/04 00:16:13;;;;;;;29.15;15.10;;;1.10;99.90;;;;;;5103319;28;20036;-74
2022/12/04 00:18:41;;;;;;;29.13;14.23;;;1.00;99.90;;;;;;5091089;28;20067;-73
2022/12/04 00:21:10;;;;;;;29.60;15.40;;;1.00;99.90;;;;;;5073566;28;20445;-75
2022/12/04 00:23:37;;;;;;;29.38;14.88;;;1.00;99.90;;;;;;5091278;28;20582;-75
2022/12/04 00:26:06;;;;;;;28.70;15.48;;;1.00;99.90;;;;;;5085469;28;20489;-75
2022/12/04 00:28:38;;;;;;;30.40;15.00;;;2.50;99.90;;;;;;5100278;28;20063;-75
2022/12/04 00:31:06;;;;;;;31.42;15.43;;;0.90;99.90;;;;;;5079633;28;20549;-75
2022/12/04 00:33:32;;;;;;;31.42;14.73;;;1.00;99.90;;;;;;5096345;28;20036;-75
2022/12/04 00:35:59;;;;;;;32.70;15.90;;;-0.20;99.90;;;;;;5090004;28;20138;-75
2022/12/04 00:38:25;;;;;;;31.08;15.65;;;1.00;99.90;;;;;;5089232;28;20151;-74
2022/12/04 00:40:52;;;;;;;31.88;16.35;;;1.00;99.90;;;;;;5089605;28;20188;-74
2022/12/04 00:43:18;;;;;;;32.80;16.75;;;1.40;99.90;;;;;;5088757;28;20043;-75
2022/12/04 00:45:44;;;;;;;29.83;14.93;;;0.90;99.90;;;;;;5075765;28;20032;-76
2022/12/04 00:48:10;;;;;;;32.58;15.35;;;2.50;99.90;;;;;;5095894;28;20085;-74
2022/12/04 00:50:36;;;;;;;32.67;16.05;;;0.90;99.90;;;;;;5097540;28;20120;-74
2022/12/04 00:53:02;;;;;;;31.98;15.65;;;1.60;99.90;;;;;;5099073;28;20040;-76
2022/12/04 00:55:28;;;;;;;32.70;16.08;;;1.30;99.90;;;;;;5093959;28;20035;-74
2022/12/04 00:57:54;;;;;;;33.58;16.85;;;2.50;99.90;;;;;;5089931;28;20044;-75
2022/12/04 01:00:19;;;;;;;33.38;14.93;;;0.80;99.90;;;;;;5063120;28;20051;-74
2022/12/04 01:02:45;;;;;;;30.85;14.70;;;1.30;99.90;;;;;;5076328;28;20208;-74
2022/12/04 01:05:12;;;;;;;32.38;17.08;;;0.70;99.90;;;;;;5063228;28;20036;-74
2022/12/04 01:07:37;;;;;;;31.58;15.70;;;0.60;99.90;;;;;;5082122;28;20539;-75
2022/12/04 01:10:06;;;;;;;33.85;16.33;;;0.60;99.90;;;;;;5105388;28;20039;-75
2022/12/04 01:12:32;;;;;;;34.38;16.73;;;0.60;99.90;;;;;;5088589;28;20039;-74
2022/12/04 01:15:01;;;;;;;31.77;15.20;;;0.60;99.90;;;;;;5091331;28;20365;-75
2022/12/04 01:17:27;;;;;;;33.45;16.45;;;0.60;99.90;;;;;;5090838;28;20493;-75
2022/12/04 01:19:53;;;;;;;32.88;16.15;;;0.60;99.90;;;;;;5102182;28;20039;-75
2022/12/04 01:22:19;;;;;;;32.20;15.88;;;1.30;99.90;;;;;;5084767;28;20048;-75
2022/12/04 01:24:45;;;;;;;33.75;15.43;;;0.50;99.90;;;;;;5089203;28;20078;-75
2022/12/04 01:27:10;;;;;;;31.05;15.38;;;1.30;99.90;;;;;;5089494;28;20520;-76
2022/12/04 01:29:36;;;;;;;34.92;16.98;;;1.00;99.90;;;;;;5078610;28;20485;-74
2022/12/04 01:32:03;;;;;;;31.02;16.10;;;0.60;99.90;;;;;;5078018;28;20046;-76
2022/12/04 01:34:28;;;;;;;36.28;17.77;;;0.60;99.90;;;;;;5074989;28;20052;-75
2022/12/04 01:36:54;;;;;;;38.80;17.83;;;0.60;99.90;;;;;;5080041;28;20051;-75
2022/12/04 01:39:22;;;;;;;34.67;17.73;;;0.20;99.90;;;;;;5096762;28;20032;-74
2022/12/04 01:41:48;;;;;;;35.53;17.92;;;1.20;99.90;;;;;;5087916;28;20074;-74
2022/12/04 01:44:25;;;;;;;32.38;16.65;;;0.60;99.90;;;;;;5088339;28;20064;-74
2022/12/04 01:46:59;;;;;;;34.88;17.02;;;0.60;99.90;;;;;;5090356;28;20039;-74
2022/12/04 01:49:36;;;;;;;35.00;17.75;;;0.60;99.90;;;;;;5092863;28;20470;-74
2022/12/04 01:52:17;;;;;;;32.22;17.73;;;0.60;99.90;;;;;;5095456;28;20047;-74
2022/12/04 01:54:50;;;;;;;35.30;17.45;;;0.60;99.90;;;;;;5088112;28;20040;-75
2022/12/04 01:57:21;;;;;;;35.42;17.45;;;0.60;99.90;;;;;;5078924;28;20036;-74
2022/12/04 01:59:57;;;;;;;32.47;16.27;;;0.60;99.90;;;;;;5092201;28;20576;-75
2022/12/04 02:02:31;;;;;;;35.25;17.67;;;0.60;99.90;;;;;;5090337;28;20032;-75
2022/12/04 02:04:57;;;;;;;32.78;16.15;;;0.60;99.90;;;;;;5091728;28;20071;-74
2022/12/04 02:07:22;;;;;;;34.55;17.00;;;0.60;99.90;;;;;;5092079;28;20094;-75
2022/12/04 02:09:54;;;;;;;33.05;17.30;;;1.50;99.90;;;;;;5086773;28;20842;-76
2022/12/04 02:12:54;;;;;;;32.78;16.60;;;0.60;99.90;;;;;;5074482;28;20039;-76
2022/12/04 02:15:25;;;;;;;38.30;18.40;;;0.60;99.90;;;;;;5099649;28;20048;-75
2022/12/04 02:17:53;;;;;;;36.53;17.92;;;2.20;99.90;;;;;;5092867;28;20055;-75
2022/12/04 02:20:51;;;;;;;34.33;16.65;;;1.80;99.90;;;;;;5080119;28;20036;-75
2022/12/04 02:23:44;;;;;;;38.05;18.58;;;0.60;99.90;;;;;;5043064;28;20101;-74
2022/12/04 02:26:34;;;;;;;36.70;18.42;;;0.60;99.90;;;;;;5112428;28;20090;-74
2022/12/04 02:29:27;;;;;;;34.90;19.25;;;0.60;99.90;;;;;;5090158;28;20059;-75
2022/12/04 02:32:15;;;;;;;36.15;17.60;;;0.60;99.90;;;;;;5100556;28;20413;-74
2022/12/04 02:35:03;;;;;;;37.75;19.50;;;0.60;99.90;;;;;;5096411;28;20043;-75
2022/12/04 02:37:31;;;;;;;37.83;19.23;;;0.60;99.90;;;;;;5111976;28;20040;-75
2022/12/04 02:40:18;;;;;;;40.40;20.10;;;0.60;99.90;;;;;;5095631;28;20404;-75
2022/12/04 02:43:00;;;;;;;39.55;20.27;;;0.60;99.90;;;;;;5096934;28;20047;-75
2022/12/04 02:45:30;;;;;;;38.92;19.98;;;0.60;99.90;;;;;;5094994;28;20035;-75
2022/12/04 02:47:58;;;;;;;38.97;19.80;;;1.80;99.90;;;;;;5093066;28;20115;-74
2022/12/04 02:50:29;;;;;;;39.45;21.63;;;2.10;99.90;;;;;;5106984;28;20052;-75
2022/12/04 02:53:15;;;;;;;45.60;22.98;;;1.50;99.90;;;;;;5090598;28;20062;-75
2022/12/04 02:55:49;;;;;;;40.90;21.63;;;1.00;99.90;;;;;;5092950;28;20044;-74
2022/12/04 02:58:28;;;;;;;43.30;21.58;;;0.50;99.90;;;;;;5074435;28;20048;-75
2022/12/04 03:00:56;;;;;;;43.00;21.98;;;0.50;99.90;;;;;;5101992;28;20127;-75
2022/12/04 03:03:25;;;;;;;43.22;22.38;;;1.10;99.90;;;;;;5074607;28;20635;-75
2022/12/04 03:06:02;;;;;;;42.35;22.05;;;0.50;99.90;;;;;;5103387;28;20056;-75
2022/12/04 03:08:45;;;;;;;40.67;20.83;;;1.40;99.90;;;;;;5083340;28;20507;-75
2022/12/04 03:11:11;;;;;;;42.90;23.67;;;0.50;99.90;;;;;;5092501;28;20083;-74
2022/12/04 03:14:35;;;;;;;43.20;22.23;;;0.50;99.90;;;;;;5094549;28;20072;-75
2022/12/04 03:17:18;;;;;;;39.10;21.25;;;0.50;99.90;;;;;;5033202;28;20131;-74
2022/12/04 03:19:53;;;;;;;45.72;22.75;;;0.50;99.90;;;;;;5033275;28;20123;-75
2022/12/04 03:22:22;;;;;;;43.83;22.35;;;0.50;99.90;;;;;;5084817;28;20047;-75
2022/12/04 03:24:51;;;;;;;45.38;22.17;;;0.40;99.90;;;;;;5098337;28;20044;-74
2022/12/04 03:27:37;;;;;;;43.40;22.63;;;0.50;99.90;;;;;;5099604;28;20118;-76
2022/12/04 03:30:09;;;;;;;44.28;22.85;;;0.50;99.90;;;;;;5074079;28;20476;-74
2022/12/04 03:33:04;;;;;;;44.75;23.25;;;0.50;99.90;;;;;;5073239;28;20082;-74
2022/12/04 03:35:58;;;;;;;44.17;23.17;;;0.50;99.90;;;;;;5090101;28;20039;-74
2022/12/04 03:38:40;;;;;;;44.35;22.75;;;0.30;99.90;;;;;;5091656;28;20039;-74
2022/12/04 03:41:16;;;;;;;43.83;22.90;;;0.50;99.90;;;;;;5092349;28;20043;-74
2022/12/04 03:43:51;;;;;;;43.67;22.48;;;0.50;99.90;;;;;;5090899;28;20036;-75
2022/12/04 03:46:47;;;;;;;46.03;23.77;;;0.50;99.90;;;;;;5080648;28;20127;-75
2022/12/04 03:49:38;;;;;;;41.13;21.75;;;0.50;99.90;;;;;;5077554;28;20050;-74
2022/12/04 03:52:13;;;;;;;43.55;22.00;;;0.50;99.90;;;;;;5083752;28;20073;-75
2022/12/04 03:54:47;;;;;;;42.08;21.80;;;0.50;99.90;;;;;;5073904;28;20043;-73
2022/12/04 03:57:18;;;;;;;44.55;23.17;;;0.40;99.90;;;;;;5090141;28;20294;-74
2022/12/04 03:59:52;;;;;;;42.00;22.70;;;0.40;99.90;;;;;;5089867;28;20036;-74
2022/12/04 04:02:29;;;;;;;44.05;22.25;;;0.40;99.90;;;;;;5089963;28;20319;-75
2022/12/04 04:04:57;;;;;;;44.28;23.05;;;0.40;99.90;;;;;;5103952;28;20171;-75
2022/12/04 04:07:42;;;;;;;45.78;24.02;;;1.30;99.90;;;;;;5092798;28;20047;-75
2022/12/04 04:10:14;;;;;;;46.55;23.45;;;0.30;99.90;;;;;;5094592;28;20036;-74
2022/12/04 04:24:12;;;;;;;46.40;23.50;;;1.40;99.90;;;;;;5095354;28;20115;-75
2022/12/04 04:26:39;;;;;;;44.33;23.05;;;0.90;99.90;;;;;;5095195;28;20176;-75
2022/12/04 04:29:05;;;;;;;44.63;23.25;;;0.40;99.90;;;;;;5073040;28;20044;-75
2022/12/04 04:31:36;;;;;;;46.03;23.38;;;0.40;99.90;;;;;;5091535;28;20047;-75
2022/12/04 04:34:40;;;;;;;44.58;22.77;;;0.80;99.90;;;;;;5091952;28;20039;-75
2022/12/04 04:37:30;;;;;;;48.92;23.73;;;0.30;99.90;;;;;;5107011;28;20059;-74
2022/12/04 04:40:12;;;;;;;46.42;23.90;;;0.30;99.90;;;;;;5090681;28;20072;-75
2022/12/04 04:42:49;;;;;;;46.35;24.42;;;2.80;99.90;;;;;;5092896;28;20043;-74
2022/12/04 04:45:23;;;;;;;48.50;24.50;;;1.10;99.90;;;;;;5103102;28;20040;-75
2022/12/04 04:48:02;;;;;;;46.58;24.38;;;0.40;99.90;;;;;;5092730;28;20671;-75
2022/12/04 04:50:30;;;;;;;48.83;25.08;;;0.40;99.90;;;;;;5089966;28;20092;-75
2022/12/04 04:53:01;;;;;;;46.53;24.33;;;0.40;99.90;;;;;;5100448;28;20044;-74
2022/12/04 04:55:27;;;;;;;45.03;23.38;;;0.40;99.90;;;;;;5110045;28;20044;-75
2022/12/04 04:57:53;;;;;;;47.28;24.85;;;0.40;99.90;;;;;;5109736;28;20579;-74
2022/12/04 05:00:21;;;;;;;48.10;24.60;;;1.90;99.90;;;;;;5080100;28;20200;-74
2022/12/04 05:02:48;;;;;;;48.35;24.90;;;0.40;99.90;;;;;;5095610;28;20039;-76
2022/12/04 05:05:16;;;;;;;46.15;24.27;;;0.40;99.90;;;;;;5090794;28;20401;-75
2022/12/04 05:07:42;;;;;;;48.60;25.63;;;0.40;99.90;;;;;;5072613;28;20504;-75
2022/12/04 05:10:08;;;;;;;47.45;24.17;;;0.40;99.90;;;;;;5072870;28;20115;-74
2022/12/04 05:12:34;;;;;;;45.33;23.13;;;0.40;99.90;;;;;;5091002;28;20043;-74
2022/12/04 05:15:00;;;;;;;50.42;24.95;;;0.50;99.90;;;;;;5110732;28;20491;-75
2022/12/04 05:17:25;;;;;;;45.97;24.27;;;0.40;99.90;;;;;;5056057;28;20373;-74
2022/12/04 05:19:55;;;;;;;47.13;22.42;;;0.40;99.90;;;;;;5096009;28;20036;-74
2022/12/04 05:22:47;;;;;;;46.00;23.90;;;0.80;99.90;;;;;;5089977;28;20046;-74
2022/12/04 05:25:13;;;;;;;45.50;24.05;;;0.50;99.90;;;;;;5087795;28;20032;-75
2022/12/04 05:27:38;;;;;;;47.60;24.65;;;0.50;99.90;;;;;;5089222;28;20485;-74
2022/12/04 05:30:05;;;;;;;45.63;24.13;;;0.40;99.90;;;;;;5107902;28;20152;-74
2022/12/04 05:32:31;;;;;;;42.15;22.30;;;0.50;99.90;;;;;;5075726;28;20043;-75
2022/12/04 05:34:57;;;;;;;43.88;22.80;;;1.00;99.90;;;;;;5092860;28;20035;-75
2022/12/04 05:37:24;;;;;;;46.47;24.13;;;2.30;99.90;;;;;;5090799;28;20063;-74
2022/12/04 05:39:49;;;;;;;45.30;24.88;;;0.50;99.90;;;;;;5103443;28;20039;-75
2022/12/04 05:42:15;;;;;;;46.25;24.08;;;0.50;99.90;;;;;;5095666;28;20044;-75
2022/12/04 05:44:41;;;;;;;46.28;23.70;;;1.30;99.90;;;;;;5071189;28;20048;-75
2022/12/04 05:47:09;;;;;;;49.47;24.67;;;0.50;99.90;;;;;;5045605;28;20067;-75
2022/12/04 05:49:35;;;;;;;46.70;24.83;;;0.50;99.90;;;;;;5088529;28;20039;-75
2022/12/04 05:52:02;;;;;;;48.42;24.92;;;0.50;99.90;;;;;;5085724;28;20482;-75
2022/12/04 05:54:28;;;;;;;44.58;24.27;;;0.50;99.90;;;;;;5091792;28;20295;-75
2022/12/04 05:56:53;;;;;;;48.15;24.67;;;0.80;99.90;;;;;;5092220;28;20032;-75
2022/12/04 05:59:19;;;;;;;44.85;23.83;;;0.50;99.90;;;;;;5058964;28;20097;-74
2022/12/04 06:01:45;;;;;;;47.22;24.10;;;0.50;99.90;;;;;;5090453;28;20036;-74
2022/12/04 06:04:11;;;;;;;43.80;22.63;;;0.50;99.90;;;;;;5077796;28;20036;-73
2022/12/04 06:06:37;;;;;;;46.85;23.85;;;0.50;99.90;;;;;;5087152;28;20074;-75
2022/12/04 06:09:04;;;;;;;46.05;24.08;;;1.00;99.90;;;;;;5075565;28;20083;-74
2022/12/04 06:11:33;;;;;;;46.70;24.65;;;1.60;99.90;;;;;;5093234;28;20105;-75
2022/12/04 06:14:00;;;;;;;47.58;24.17;;;2.50;99.90;;;;;;5089606;28;20155;-74
2022/12/04 06:16:32;;;;;;;47.88;24.95;;;0.60;99.90;;;;;;5091102;28;20036;-74
2022/12/04 06:19:01;;;;;;;46.92;23.67;;;0.60;99.90;;;;;;5089346;28;20047;-75
2022/12/04 06:21:33;;;;;;;44.83;24.58;;;0.60;99.90;;;;;;5088181;28;20109;-74
2022/12/04 06:23:59;;;;;;;44.70;23.58;;;0.60;99.90;;;;;;5071431;28;20050;-74
2022/12/04 06:26:25;;;;;;;48.00;24.20;;;0.60;99.90;;;;;;5095667;28;20460;-75
2022/12/04 06:28:56;;;;;;;46.58;24.25;;;1.30;99.90;;;;;;5107840;28;20096;-74
2022/12/04 06:31:23;;;;;;;44.00;23.50;;;0.60;99.90;;;;;;5092396;28;20048;-74
2022/12/04 06:33:49;;;;;;;46.45;24.58;;;0.60;99.90;;;;;;5079792;28;20035;-75
2022/12/04 06:36:17;;;;;;;47.10;24.70;;;0.60;99.90;;;;;;5102064;28;20082;-74
2022/12/04 06:38:44;;;;;;;47.33;24.27;;;0.60;99.90;;;;;;5089540;28;20070;-75
2022/12/04 06:41:15;;;;;;;47.58;24.27;;;0.60;99.90;;;;;;5086423;28;20048;-74
2022/12/04 06:43:41;;;;;;;49.67;25.25;;;1.40;99.90;;;;;;5097675;28;20040;-75
2022/12/04 06:46:10;;;;;;;50.10;25.10;;;0.60;99.90;;;;;;5068805;28;20419;-75
2022/12/04 06:48:37;;;;;;;50.78;25.33;;;0.70;99.90;;;;;;5111332;28;20039;-74
2022/12/04 06:51:15;;;;;;;45.10;22.85;;;0.70;99.90;;;;;;5077180;28;20149;-73
2022/12/04 06:53:41;;;;;;;49.63;24.60;;;0.70;99.90;;;;;;5077545;28;20119;-75
2022/12/04 06:56:10;;;;;;;48.20;24.60;;;0.70;99.90;;;;;;5099197;28;20054;-74
2022/12/04 06:58:36;;;;;;;47.33;24.08;;;0.60;99.90;;;;;;5087762;28;20044;-74
2022/12/04 07:01:07;;;;;;;49.58;23.63;;;0.70;99.90;;;;;;5107097;28;20027;-75
2022/12/04 07:03:33;;;;;;;42.25;21.95;;;0.70;99.90;;;;;;5109393;28;20040;-75
2022/12/04 07:06:08;;;;;;;43.75;23.65;;;1.80;99.90;;;;;;5096046;28;20565;-74
2022/12/04 07:08:33;;;;;;;46.90;23.33;;;0.70;99.90;;;;;;5097153;28;20040;-75
2022/12/04 07:11:01;;;;;;;45.75;23.60;;;1.70;99.90;;;;;;5104677;28;20054;-75
2022/12/04 07:13:27;;;;;;;47.42;24.02;;;0.70;99.90;;;;;;5093601;28;20093;-75
2022/12/04 07:15:52;;;;;;;44.25;23.27;;;0.70;99.90;;;;;;5094662;28;20516;-74
2022/12/04 07:18:18;;;;;;;45.15;24.33;;;1.70;99.90;;;;;;5100690;28;20063;-74
2022/12/04 07:20:44;;;;;;;45.03;23.42;;;0.70;99.90;;;;;;5090420;28;20040;-75
2022/12/04 07:23:10;;;;;;;45.00;23.40;;;1.60;99.90;;;;;;5074915;28;20136;-74
2022/12/04 07:25:39;;;;;;;45.28;23.77;;;0.70;99.90;;;;;;5094047;28;20044;-73
2022/12/04 07:28:05;;;;;;;47.17;23.50;;;1.90;99.90;;;;;;5099938;28;20073;-75
2022/12/04 07:30:31;;;;;;;45.78;23.27;;;0.80;99.90;;;;;;5088590;28;20051;-74
2022/12/04 07:32:56;;;;;;;40.33;21.15;;;0.80;99.90;;;;;;5080070;28;20040;-74
2022/12/04 07:35:22;;;;;;;45.65;23.33;;;1.50;99.90;;;;;;5091883;28;20080;-75
2022/12/04 07:37:48;;;;;;;44.88;23.63;;;0.80;99.90;;;;;;5083432;28;20493;-74
2022/12/04 07:40:14;;;;;;;44.38;22.73;;;0.80;99.90;;;;;;5084879;28;20101;-75
2022/12/04 07:42:39;;;;;;;48.00;24.77;;;0.80;99.90;;;;;;5090803;28;20036;-74
2022/12/04 07:45:06;;;;;;;44.30;23.27;;;1.10;99.90;;;;;;5095137;28;20036;-76
2022/12/04 07:47:33;;;;;;;44.97;23.88;;;0.90;99.90;;;;;;5073894;28;20043;-75
2022/12/04 07:49:59;;;;;;;46.78;23.90;;;1.40;99.90;;;;;;5078955;28;20044;-74
2022/12/04 07:52:24;;;;;;;45.15;23.73;;;0.90;99.90;;;;;;5082318;28;20462;-75
2022/12/04 07:54:50;;;;;;;43.17;22.33;;;1.70;99.90;;;;;;5083119;28;20071;-75
2022/12/04 07:57:16;;;;;;;46.63;24.83;;;;;;;;;;5055535;28;20493;-74
2022/12/04 07:59:42;;;;;;;48.25;24.75;;;1.00;99.90;;;;;;5103405;28;20039;-75
2022/12/04 08:02:08;;;;;;;44.78;22.77;;;1.00;99.90;;;;;;5090543;28;20032;-74
2022/12/04 08:04:33;;;;;;;43.85;22.98;;;1.10;99.90;;;;;;5091580;28;20072;-74
2022/12/04 08:06:59;;;;;;;42.90;22.65;;;;;;;;;;5091623;28;20060;-75
2022/12/04 08:09:25;;;;;;;46.05;23.10;;;1.00;99.90;;;;;;5090959;28;20032;-74
2022/12/04 08:11:51;;;;;;;45.65;23.85;;;1.70;99.90;;;;;;5090091;28;20096;-75
2022/12/04 08:14:17;;;;;;;44.78;23.33;;;1.10;99.90;;;;;;5109632;28;20065;-74
2022/12/04 08:16:42;;;;;;;44.92;23.02;;;1.30;99.90;;;;;;5076625;28;20039;-74
2022/12/04 08:19:08;;;;;;;46.78;22.98;;;1.60;99.90;;;;;;5090175;28;20036;-74
2022/12/04 08:21:35;;;;;;;47.05;24.08;;;1.70;99.90;;;;;;5084562;28;20044;-74
2022/12/04 08:24:01;;;;;;;42.08;22.25;;;1.10;99.90;;;;;;5090659;28;20121;-74
2022/12/04 08:26:32;;;;;;;42.80;22.17;;;1.10;99.90;;;;;;5091688;28;20043;-74
2022/12/04 08:29:01;;;;;;;41.78;21.48;;;1.20;99.90;;;;;;5092797;28;20047;-73
2022/12/04 08:31:31;;;;;;;45.55;22.90;;;1.20;99.90;;;;;;5091873;28;20089;-74
2022/12/04 08:33:59;;;;;;;43.10;23.05;;;2.50;99.90;;;;;;5082165;28;20036;-74
2022/12/04 08:36:31;;;;;;;39.03;21.10;;;1.20;99.90;;;;;;5081424;28;20370;-76
2022/12/04 08:38:57;;;;;;;40.15;21.38;;;1.20;99.90;;;;;;5095991;28;20032;-74
2022/12/04 08:41:25;;;;;;;41.38;22.58;;;1.30;99.90;;;;;;5098970;28;20028;-73
2022/12/04 08:43:53;;;;;;;42.80;22.33;;;2.60;99.90;;;;;;5091353;28;20469;-74
2022/12/04 08:46:19;;;;;;;39.15;21.77;;;1.30;99.90;;;;;;5090438;28;20036;-75
2022/12/04 08:48:46;;;;;;;39.28;20.65;;;1.30;99.90;;;;;;5096766;28;20109;-75
2022/12/04 08:51:18;;;;;;;41.70;22.17;;;1.40;99.90;;;;;;5093464;28;20032;-74
2022/12/04 08:53:44;;;;;;;39.25;20.63;;;;;;;;;;5096124;28;20036;-75
2022/12/04 08:56:10;;;;;;;39.20;21.08;;;1.40;99.90;;;;;;5084855;28;20119;-75
2022/12/04 08:58:37;;;;;;;37.08;19.67;;;2.90;99.90;;;;;;5072255;28;20401;-74
2022/12/04 09:01:08;;;;;;;37.80;20.55;;;1.40;99.90;;;;;;5095611;28;20024;-75
2022/12/04 09:03:35;;;;;;;38.42;20.98;;;1.50;99.90;;;;;;5078293;28;20054;-75
2022/12/04 09:06:03;;;;;;;35.97;20.45;;;1.50;99.90;;;;;;5082198;28;20404;-74
2022/12/04 09:08:29;;;;;;;37.50;20.50;;;1.50;99.90;;;;;;5095392;28;20493;-74
2022/12/04 09:10:55;;;;;;;36.83;19.80;;;1.50;99.90;;;;;;5091459;28;20092;-75
2022/12/04 09:13:21;;;;;;;39.25;20.67;;;1.80;99.90;;;;;;5089968;28;20032;-76
2022/12/04 09:15:46;;;;;;;38.35;20.83;;;1.60;99.90;;;;;;5093405;28;20047;-76
2022/12/04 09:18:12;;;;;;;37.15;19.77;;;1.50;99.90;;;;;;5078803;28;20197;-75
2022/12/04 09:20:38;;;;;;;38.60;19.58;;;1.60;99.90;;;;;;5090701;28;20494;-77
2022/12/04 09:23:04;;;;;;;37.20;20.27;;;0.80;99.90;;;;;;5104672;28;20507;-75
2022/12/04 09:25:31;;;;;;;35.60;19.65;;;1.70;99.90;;;;;;5092872;28;20118;-74
2022/12/04 09:27:56;;;;;;;36.10;19.90;;;1.70;99.90;;;;;;5101717;28;20084;-75
2022/12/04 09:30:22;;;;;;;37.97;19.67;;;3.20;99.90;;;;;;5099159;28;20098;-75
2022/12/04 09:32:51;;;;;;;35.90;19.92;;;1.80;99.90;;;;;;5093769;28;20057;-75
2022/12/04 09:35:17;;;;;;;35.97;18.95;;;2.40;99.90;;;;;;5071566;28;20442;-75
2022/12/04 09:37:45;;;;;;;36.22;19.15;;;1.80;99.90;;;;;;5087988;28;20508;-74
2022/12/04 09:40:29;;;;;;;35.67;20.35;;;1.80;99.90;;;;;;5096503;28;20036;-76
2022/12/04 09:43:21;;;;;;;35.83;19.30;;;1.90;99.90;;;;;;5093358;28;20401;-76
2022/12/04 09:45:52;;;;;;;37.28;20.58;;;1.90;99.90;;;;;;5090064;28;20115;-77
2022/12/04 09:48:21;;;;;;;31.30;17.30;;;2.00;99.90;;;;;;5091049;28;20499;-75
2022/12/04 09:50:49;;;;;;;35.42;18.05;;;2.10;99.90;;;;;;5083126;28;20079;-75
2022/12/04 09:53:17;;;;;;;33.63;18.65;;;2.70;99.90;;;;;;5090192;28;20032;-75
2022/12/04 09:56:03;;;;;;;33.42;17.73;;;2.60;99.90;;;;;;5097770;28;20051;-74
2022/12/04 09:58:40;;;;;;;34.45;17.83;;;2.20;99.90;;;;;;5100524;28;20036;-75
2022/12/04 10:01:21;;;;;;;36.08;18.50;;;2.20;99.90;;;;;;5095692;28;20043;-75
2022/12/04 10:03:47;;;;;;;35.08;19.00;;;2.10;99.90;;;;;;5098093;28;20437;-76
2022/12/04 10:06:18;;;;;;;34.97;19.02;;;2.20;99.90;;;;;;5091672;28;20032;-75
2022/12/04 10:08:49;;;;;;;35.72;18.10;;;2.20;99.90;;;;;;5096422;28;20036;-74
2022/12/04 10:11:29;;;;;;;33.28;18.65;;;2.20;99.90;;;;;;5091434;28;20047;-75
2022/12/04 10:14:32;;;;;;;32.20;18.17;;;2.80;99.90;;;;;;5094750;28;20035;-75
2022/12/04 10:17:27;;;;;;;32.88;16.92;;;2.30;99.90;;;;;;5091481;28;20042;-76
2022/12/04 10:19:53;;;;;;;30.17;16.40;;;2.20;99.90;;;;;;5015942;28;20176;-73
2022/12/04 10:22:46;;;;;;;30.98;16.38;;;3.80;99.90;;;;;;5090726;28;20378;-75
2022/12/04 10:25:25;;;;;;;34.75;17.92;;;2.30;99.90;;;;;;5087222;28;20209;-74
2022/12/04 10:28:17;;;;;;;31.58;17.60;;;2.30;99.90;;;;;;5093097;28;20122;-73
2022/12/04 10:30:44;;;;;;;30.23;16.60;;;2.30;99.90;;;;;;5073012;28;20040;-74
2022/12/04 10:33:38;;;;;;;28.55;16.20;;;2.30;99.90;;;;;;5077943;28;20039;-75
2022/12/04 10:36:06;;;;;;;31.30;17.10;;;2.30;99.90;;;;;;5083389;28;20124;-74
2022/12/04 10:38:58;;;;;;;31.15;16.15;;;2.30;99.90;;;;;;5092977;28;20377;-74
2022/12/04 10:41:28;;;;;;;30.30;16.20;;;2.40;99.90;;;;;;5095217;28;20047;-74
2022/12/04 10:43:54;;;;;;;30.90;15.95;;;3.40;99.90;;;;;;5111773;28;20032;-74
2022/12/04 10:46:26;;;;;;;30.30;16.10;;;2.40;99.90;;;;;;5095368;28;20485;-74
2022/12/04 10:49:10;;;;;;;28.25;15.52;;;2.40;99.90;;;;;;5093679;28;20044;-75
2022/12/04 10:51:41;;;;;;;28.13;15.57;;;2.50;99.90;;;;;;5082018;28;20101;-75
2022/12/04 10:54:47;;;;;;;28.08;14.95;;;4.20;99.90;;;;;;5092945;28;20047;-76
2022/12/04 10:57:14;;;;;;;25.90;14.05;;;2.50;99.90;;;;;;5098605;28;20044;-76
2022/12/04 10:59:55;;;;;;;26.50;13.68;;;2.60;99.90;;;;;;5091668;28;20035;-77
2022/12/04 11:02:25;;;;;;;28.05;14.25;;;3.40;99.90;;;;;;5099088;28;20038;-74
2022/12/04 11:04:57;;;;;;;25.50;13.25;;;2.60;99.90;;;;;;5092681;28;20032;-75
2022/12/04 11:07:37;;;;;;;24.05;12.55;;;2.60;99.90;;;;;;5099884;28;20042;-74
2022/12/04 11:10:19;;;;;;;23.70;13.38;;;3.20;99.90;;;;;;5102315;28;21176;-76
2022/12/04 11:12:54;;;;;;;22.38;12.18;;;2.60;99.90;;;;;;5101350;28;20044;-74
2022/12/04 11:15:20;;;;;;;22.45;12.05;;;2.60;99.90;;;;;;5107994;28;20147;-74
2022/12/04 11:17:51;;;;;;;23.75;12.75;;;2.60;99.90;;;;;;5100719;28;20032;-74
2022/12/04 11:20:26;;;;;;;23.23;11.75;;;4.10;99.90;;;;;;5080625;28;20040;-74
2022/12/04 11:22:58;;;;;;;20.67;11.88;;;2.50;99.90;;;;;;5101484;28;20082;-74
2022/12/04 11:25:26;;;;;;;23.17;12.85;;;0.80;99.90;;;;;;5076283;28;20093;-75
2022/12/04 11:27:59;;;;;;;23.23;12.43;;;2.70;99.90;;;;;;5112998;28;20051;-74
2022/12/04 11:30:32;;;;;;;22.65;13.10;;;3.10;99.90;;;;;;5104042;28;20032;-75
2022/12/04 11:32:59;;;;;;;22.77;12.73;;;2.70;99.90;;;;;;5087526;28;20073;-75
2022/12/04 11:35:28;;;;;;;24.55;13.80;;;4.20;99.90;;;;;;5102635;28;20039;-74
2022/12/04 11:38:11;;;;;;;22.27;12.43;;;2.60;99.90;;;;;;5094881;28;20115;-74
2022/12/04 11:40:37;;;;;;;25.02;13.13;;;2.70;99.90;;;;;;5099328;28;20040;-75
2022/12/04 11:43:09;;;;;;;24.98;12.75;;;2.70;99.90;;;;;;5081031;28;20493;-74
2022/12/04 11:45:34;;;;;;;24.17;12.68;;;2.60;99.90;;;;;;5092178;28;20385;-75
2022/12/04 11:48:13;;;;;;;23.45;12.82;;;3.30;99.90;;;;;;5103763;28;20050;-75
2022/12/04 11:50:48;;;;;;;24.13;12.93;;;3.00;99.90;;;;;;5091967;28;20050;-75
2022/12/04 11:53:23;;;;;;;22.13;12.77;;;2.70;99.90;;;;;;5104536;28;20032;-74
2022/12/04 11:55:52;;;;;;;21.95;11.90;;;2.60;99.90;;;;;;5094307;28;20048;-76
2022/12/04 11:58:38;;;;;;;25.33;13.15;;;2.70;99.90;;;;;;5076915;28;20541;-75
2022/12/04 12:01:18;;;;;;;22.95;13.02;;;2.70;99.90;;;;;;5056608;28;20134;-75
2022/12/04 12:03:47;;;;;;;22.63;12.32;;;2.70;99.90;;;;;;5090614;28;20071;-74
2022/12/04 12:06:25;;;;;;;25.27;14.10;;;2.70;99.90;;;;;;5098291;28;20051;-75
2022/12/04 12:09:12;;;;;;;22.92;12.48;;;3.90;99.90;;;;;;5092087;28;20131;-75
2022/12/04 12:11:45;;;;;;;21.85;11.82;;;3.30;99.90;;;;;;5083427;28;20048;-74
2022/12/04 12:14:20;;;;;;;23.10;12.15;;;2.80;99.90;;;;;;5096330;28;20539;-76
2022/12/04 12:17:16;;;;;;;21.63;12.07;;;2.80;99.90;;;;;;5096159;28;20658;-75
2022/12/04 12:20:13;;;;;;;;;;;;;;;;;;;;;
2022/12/04 12:22:39;;;;;;;22.58;12.27;;;2.80;99.90;;;;;;5094518;28;20031;-75
2022/12/04 12:25:20;;;;;;;21.52;11.93;;;3.70;99.90;;;;;;5085132;28;20032;-75
2022/12/04 12:28:08;;;;;;;24.38;13.20;;;2.70;99.90;;;;;;5074908;28;20398;-75
2022/12/04 12:30:49;;;;;;;23.45;12.50;;;2.70;99.90;;;;;;5089476;28;20048;-75
2022/12/04 12:33:25;;;;;;;23.25;13.00;;;2.70;99.90;;;;;;5090395;28;20039;-74
2022/12/04 12:36:07;;;;;;;25.48;13.55;;;3.90;99.90;;;;;;5092068;28;20131;-75
2022/12/04 12:38:55;;;;;;;24.70;13.60;;;2.80;99.90;;;;;;5096447;28;20374;-75
2022/12/04 12:41:38;;;;;;;26.25;13.48;;;2.80;99.90;;;;;;5087182;28;20524;-75
2022/12/04 12:44:24;;;;;;;;;;;2.80;99.90;;;;;;5089281;28;21233;-74
2022/12/04 12:46:59;;;;;;;27.30;14.10;;;2.70;99.90;;;;;;5098682;28;19916;-75
2022/12/04 12:49:59;;;;;;;25.67;13.52;;;3.10;99.90;;;;;;5078170;28;20044;-76
2022/12/04 12:53:00;;;;;;;23.98;13.25;;;3.10;99.90;;;;;;5088452;28;20576;-75
2022/12/04 12:55:51;;;;;;;24.55;12.88;;;3.40;99.90;;;;;;5089052;28;20044;-74
2022/12/04 12:58:20;;;;;;;29.23;13.43;;;2.80;99.90;;;;;;5091003;28;20047;-73
2022/12/04 13:01:14;;;;;;;24.55;13.05;;;2.80;99.90;;;;;;5089408;28;20032;-76
2022/12/04 13:03:54;;;;;;;24.98;13.23;;;2.80;99.90;;;;;;5104526;28;20044;-75
2022/12/04 13:06:27;;;;;;;25.75;13.23;;;3.30;99.90;;;;;;5093116;28;20060;-75
2022/12/04 13:09:11;;;;;;;27.83;13.90;;;2.80;99.90;;;;;;5099082;28;20089;-76
2022/12/04 13:11:39;;;;;;;27.85;14.02;;;2.80;99.90;;;;;;5090379;28;20047;-75
2022/12/04 13:14:05;;;;;;;25.90;14.00;;;2.90;99.90;;;;;;5105563;28;20063;-76
2022/12/04 13:16:52;;;;;;;26.17;13.77;;;3.10;99.90;;;;;;5081411;28;20046;-75